createdAt,value
2017-09-28T00:00:46.121Z,37.87
2017-09-28T00:03:14.349Z,39.33
2017-09-28T00:05:41.821Z,36.27
2017-09-28T00:08:09.275Z,39.77
2017-09-28T00:10:36.742Z,36.40
2017-09-28T00:13:04.198Z,36.40
2017-09-28T00:15:31.658Z,38.27
2017-09-28T00:17:59.112Z,39.57
2017-09-28T00:20:26.574Z,41.67
2017-09-28T00:22:54.033Z,33.07
2017-09-28T00:25:21.494Z,33.30
2017-09-28T00:27:48.964Z,31.63
2017-09-28T00:30:17.226Z,23.57
2017-09-28T00:32:44.684Z,21.97
2017-09-28T00:35:12.233Z,22.03
2017-09-28T00:37:39.692Z,21.70
2017-09-28T00:40:07.162Z,28.07
2017-09-28T00:42:34.614Z,28.33
2017-09-28T00:45:02.082Z,36.40
2017-09-28T00:47:29.539Z,44.80
2017-09-28T00:49:57.001Z,43.80
2017-09-28T00:52:25.217Z,45.00
2017-09-28T00:54:52.826Z,42.80
2017-09-28T00:57:20.369Z,38.17
2017-09-28T00:59:47.829Z,34.87
2017-09-28T01:02:15.303Z,38.10
2017-09-28T01:04:42.754Z,33.70
2017-09-28T01:07:10.301Z,26.37
2017-09-28T01:09:37.758Z,34.63
2017-09-28T01:12:05.220Z,34.27
2017-09-28T01:14:32.681Z,46.83
2017-09-28T01:17:00.140Z,46.63
2017-09-28T01:19:27.598Z,43.43
2017-09-28T01:21:55.066Z,38.17
2017-09-28T01:24:23.293Z,37.83
2017-09-28T01:26:50.759Z,41.40
2017-09-28T01:29:18.210Z,31.57
2017-09-28T01:31:45.695Z,24.07
2017-09-28T01:34:13.153Z,26.93
2017-09-28T01:36:40.611Z,25.67
2017-09-28T01:39:08.073Z,25.27
2017-09-28T01:41:36.305Z,28.57
2017-09-28T01:44:03.768Z,37.10
2017-09-28T01:46:31.336Z,40.87
2017-09-28T01:48:58.897Z,40.20
2017-09-28T01:51:26.361Z,43.10
2017-09-28T01:53:53.823Z,45.87
2017-09-28T01:56:21.278Z,41.73
2017-09-28T01:58:48.743Z,38.87
2017-09-28T02:01:16.197Z,35.67
2017-09-28T02:03:43.747Z,42.60
2017-09-28T02:06:11.309Z,27.67
2017-09-28T02:08:38.780Z,30.83
2017-09-28T02:11:06.269Z,30.00
2017-09-28T02:13:33.723Z,28.13
2017-09-28T02:16:01.190Z,25.37
2017-09-28T02:18:28.651Z,24.37
2017-09-28T02:20:56.109Z,29.63
2017-09-28T02:23:23.581Z,26.13
2017-09-28T02:25:51.037Z,19.20
2017-09-28T02:28:18.497Z,23.63
2017-09-28T02:30:45.958Z,29.60
2017-09-28T02:33:13.526Z,27.63
2017-09-28T02:35:40.977Z,45.90
2017-09-28T02:38:08.447Z,41.23
2017-09-28T02:40:35.901Z,48.47
2017-09-28T02:43:03.454Z,42.90
2017-09-28T02:45:30.914Z,38.97
2017-09-28T02:47:58.382Z,42.77
2017-09-28T02:50:25.834Z,36.97
2017-09-28T02:52:53.298Z,41.27
2017-09-28T02:55:20.752Z,36.27
2017-09-28T02:57:48.220Z,42.00
2017-09-28T03:00:15.670Z,42.30
2017-09-28T03:02:43.135Z,37.67
2017-09-28T03:05:11.354Z,36.53
2017-09-28T03:07:38.811Z,34.80
2017-09-28T03:10:06.284Z,36.27
2017-09-28T03:12:33.735Z,40.80
2017-09-28T03:15:01.198Z,36.67
2017-09-28T03:17:28.762Z,40.60
2017-09-28T03:19:56.229Z,40.53
2017-09-28T03:22:23.784Z,40.13
2017-09-28T03:24:51.258Z,36.20
2017-09-28T03:27:18.701Z,39.23
2017-09-28T03:29:46.173Z,41.47
2017-09-28T03:32:14.402Z,44.23
2017-09-28T03:34:41.880Z,44.13
2017-09-28T03:37:09.338Z,46.73
2017-09-28T03:39:36.801Z,41.47
2017-09-28T03:42:04.257Z,46.53
2017-09-28T03:44:31.727Z,43.73
2017-09-28T03:46:59.273Z,36.60
2017-09-28T03:49:26.733Z,47.73
2017-09-28T03:51:54.194Z,46.30
2017-09-28T03:54:21.657Z,29.60
2017-09-28T03:56:49.210Z,26.47
2017-09-28T03:59:16.674Z,31.53
2017-09-28T04:01:44.135Z,35.53
2017-09-28T04:04:11.669Z,31.20
2017-09-28T04:06:39.137Z,32.27
2017-09-28T04:09:06.601Z,25.23
2017-09-28T04:11:34.049Z,29.70
2017-09-28T04:14:01.519Z,31.60
2017-09-28T04:16:28.939Z,26.73
2017-09-28T04:18:56.442Z,28.90
2017-09-28T04:21:24.671Z,26.70
2017-09-28T04:23:52.133Z,24.00
2017-09-28T04:26:19.588Z,21.47
2017-09-28T04:28:47.050Z,24.47
2017-09-28T04:31:14.610Z,20.77
2017-09-28T04:33:42.075Z,20.87
2017-09-28T04:36:09.540Z,20.57
2017-09-28T04:38:37.003Z,20.27
2017-09-28T04:41:04.473Z,26.07
2017-09-28T04:43:32.717Z,24.60
2017-09-28T04:46:00.186Z,23.80
2017-09-28T04:48:27.642Z,19.20
2017-09-28T04:50:55.102Z,23.33
2017-09-28T04:53:22.650Z,20.50
2017-09-28T04:55:50.202Z,24.30
2017-09-28T04:58:17.663Z,23.97
2017-09-28T05:00:45.130Z,28.47
2017-09-28T05:03:12.687Z,26.03
2017-09-28T05:05:40.233Z,33.77
2017-09-28T05:08:07.688Z,34.63
2017-09-28T05:10:35.165Z,31.70
2017-09-28T05:13:04.121Z,41.70
2017-09-28T05:15:31.601Z,38.30
2017-09-28T05:17:59.162Z,37.10
2017-09-28T05:20:26.618Z,33.20
2017-09-28T05:22:54.178Z,42.37
2017-09-28T05:25:22.454Z,42.40
2017-09-28T05:27:49.917Z,33.30
2017-09-28T05:30:17.463Z,41.43
2017-09-28T05:32:44.934Z,35.33
2017-09-28T05:35:12.407Z,34.67
2017-09-28T05:37:39.948Z,30.20
2017-09-28T05:40:08.157Z,30.90
2017-09-28T05:42:35.667Z,27.40
2017-09-28T05:45:03.226Z,22.87
2017-09-28T05:47:30.685Z,31.93
2017-09-28T05:49:58.165Z,29.00
2017-09-28T05:52:25.618Z,29.60
2017-09-28T05:54:53.844Z,24.17
2017-09-28T05:57:21.310Z,21.03
2017-09-28T05:59:48.776Z,23.03
2017-09-28T06:02:16.251Z,20.13
2017-09-28T06:04:43.701Z,24.30
2017-09-28T06:07:11.169Z,23.90
2017-09-28T06:09:38.713Z,27.37
2017-09-28T06:12:06.181Z,27.60
2017-09-28T06:14:33.641Z,24.23
2017-09-28T06:17:01.097Z,25.30
2017-09-28T06:19:28.562Z,22.47
2017-09-28T06:21:56.824Z,24.07
2017-09-28T06:24:24.289Z,22.77
2017-09-28T06:26:53.253Z,31.10
2017-09-28T06:29:20.709Z,20.80
2017-09-28T06:31:48.177Z,22.90
2017-09-28T06:34:15.636Z,24.80
2017-09-28T06:36:43.105Z,24.17
2017-09-28T06:39:10.562Z,26.33
2017-09-28T06:41:38.026Z,30.83
2017-09-28T06:44:05.489Z,25.60
2017-09-28T06:46:33.725Z,25.03
2017-09-28T06:49:01.291Z,24.17
2017-09-28T06:51:28.751Z,26.63
2017-09-28T06:53:56.217Z,24.77
2017-09-28T06:56:23.770Z,21.83
2017-09-28T06:58:51.321Z,24.23
2017-09-28T07:01:18.785Z,25.07
2017-09-28T07:03:46.246Z,26.17
2017-09-28T07:06:13.797Z,25.77
2017-09-28T07:08:41.266Z,31.80
2017-09-28T07:11:08.721Z,30.07
2017-09-28T07:13:36.181Z,27.10
2017-09-28T07:16:03.637Z,27.00
2017-09-28T07:18:31.290Z,28.17
2017-09-28T07:20:58.757Z,28.73
2017-09-28T07:23:26.313Z,29.77
2017-09-28T07:25:53.767Z,26.40
2017-09-28T07:28:21.234Z,30.40
2017-09-28T07:30:48.693Z,29.77
2017-09-28T07:33:16.946Z,29.70
2017-09-28T07:35:44.416Z,28.43
2017-09-28T07:38:11.874Z,30.50
2017-09-28T07:40:39.417Z,28.87
2017-09-28T07:43:06.984Z,25.70
2017-09-28T07:45:34.430Z,25.10
2017-09-28T07:48:01.991Z,26.10
2017-09-28T07:50:29.440Z,28.60
2017-09-28T07:52:56.902Z,23.73
2017-09-28T07:55:24.356Z,23.93
2017-09-28T07:57:51.825Z,27.73
2017-09-28T08:00:19.290Z,23.63
2017-09-28T08:02:46.833Z,26.67
2017-09-28T08:05:14.293Z,25.57
2017-09-28T08:07:41.765Z,26.03
2017-09-28T08:10:09.221Z,25.10
2017-09-28T08:12:36.761Z,26.17
2017-09-28T08:15:04.209Z,24.20
2017-09-28T08:17:31.669Z,23.30
2017-09-28T08:19:59.125Z,27.30
2017-09-28T08:22:26.589Z,25.30
2017-09-28T08:24:54.056Z,24.97
2017-09-28T08:27:21.526Z,26.53
2017-09-28T08:29:59.735Z,20.37
2017-09-28T08:32:27.971Z,23.33
2017-09-28T08:34:55.425Z,21.70
2017-09-28T08:37:22.896Z,21.87
2017-09-28T08:39:50.462Z,39.73
2017-09-28T08:42:17.927Z,20.10
2017-09-28T08:44:45.381Z,24.33
2017-09-28T08:47:12.858Z,16.37
2017-09-28T08:49:41.613Z,19.70
2017-09-28T08:52:09.083Z,22.53
2017-09-28T08:54:36.545Z,21.33
2017-09-28T08:57:04.098Z,24.50
2017-09-28T08:59:31.563Z,20.50
2017-09-28T09:01:59.098Z,20.63
2017-09-28T09:04:26.569Z,22.03
2017-09-28T09:06:54.032Z,20.03
2017-09-28T09:09:21.492Z,19.00
2017-09-28T09:11:49.718Z,16.30
2017-09-28T09:14:17.190Z,16.00
2017-09-28T09:16:44.642Z,13.87
2017-09-28T09:19:12.120Z,14.57
2017-09-28T09:21:39.582Z,12.30
2017-09-28T09:24:07.848Z,13.33
2017-09-28T09:26:35.307Z,16.40
2017-09-28T09:29:02.769Z,11.83
2017-09-28T09:31:30.234Z,13.40
2017-09-28T09:33:58.495Z,10.13
2017-09-28T09:36:25.946Z,11.20
2017-09-28T09:38:53.431Z,11.00
2017-09-28T09:41:21.664Z,12.30
2017-09-28T09:43:49.125Z,10.77
2017-09-28T09:46:16.588Z,11.83
2017-09-28T09:48:44.043Z,12.90
2017-09-28T09:51:11.501Z,14.20
2017-09-28T09:53:38.960Z,16.23
2017-09-28T09:56:06.522Z,13.10
2017-09-28T09:58:33.974Z,16.23
2017-09-28T10:01:01.448Z,26.00
2017-09-28T10:03:28.990Z,14.43
2017-09-28T10:05:56.454Z,14.83
2017-09-28T10:08:29.548Z,13.43
2017-09-28T10:10:58.142Z,17.73
2017-09-28T10:13:27.630Z,14.97
2017-09-28T10:16:02.465Z,15.27
2017-09-28T10:18:29.919Z,14.83
2017-09-28T10:20:57.384Z,14.43
2017-09-28T10:23:24.867Z,15.40
2017-09-28T10:25:52.298Z,13.00
2017-09-28T10:28:19.750Z,15.77
2017-09-28T10:30:47.210Z,12.73
2017-09-28T10:33:14.758Z,15.37
2017-09-28T10:35:42.230Z,16.67
2017-09-28T10:38:09.679Z,16.20
2017-09-28T10:40:37.166Z,15.93
2017-09-28T10:43:05.393Z,17.23
2017-09-28T10:45:32.853Z,15.43
2017-09-28T10:48:00.334Z,15.27
2017-09-28T10:50:28.557Z,13.03
2017-09-28T10:52:56.022Z,17.57
2017-09-28T10:55:23.503Z,18.90
2017-09-28T10:57:50.967Z,14.30
2017-09-28T11:00:18.425Z,14.70
2017-09-28T11:02:45.899Z,16.23
2017-09-28T11:05:14.145Z,17.37
2017-09-28T11:07:41.701Z,16.10
2017-09-28T11:10:09.157Z,10.93
2017-09-28T11:12:36.634Z,16.50
2017-09-28T11:15:04.087Z,10.10
2017-09-28T11:17:31.545Z,12.50
2017-09-28T11:19:59.779Z,11.23
2017-09-28T11:22:27.233Z,14.50
2017-09-28T11:24:54.725Z,11.17
2017-09-28T11:27:22.272Z,8.90
2017-09-28T11:29:49.732Z,13.87
2017-09-28T11:32:17.190Z,11.80
2017-09-28T11:34:44.645Z,11.27
2017-09-28T11:37:12.206Z,15.13
2017-09-28T11:39:39.672Z,12.37
2017-09-28T11:42:07.230Z,11.30
2017-09-28T11:44:34.686Z,11.53
2017-09-28T11:47:02.170Z,11.53
2017-09-28T11:49:30.379Z,9.43
2017-09-28T11:51:57.839Z,13.63
2017-09-28T11:54:25.298Z,10.47
2017-09-28T11:56:52.791Z,11.27
2017-09-28T11:59:20.245Z,10.43
2017-09-28T12:01:47.708Z,11.83
2017-09-28T12:04:15.168Z,14.33
2017-09-28T12:06:42.615Z,10.47
2017-09-28T12:09:10.082Z,10.50
2017-09-28T12:11:37.548Z,9.20
2017-09-28T12:14:05.793Z,9.90
2017-09-28T12:16:33.354Z,13.13
2017-09-28T12:19:00.815Z,7.33
2017-09-28T12:21:28.272Z,7.07
2017-09-28T12:23:55.717Z,8.53
2017-09-28T12:26:23.170Z,9.77
2017-09-28T12:28:50.625Z,8.80
2017-09-28T12:31:18.080Z,7.10
2017-09-28T12:33:45.552Z,8.20
2017-09-28T12:36:12.998Z,7.03
2017-09-28T12:38:40.453Z,8.60
2017-09-28T12:41:08.006Z,8.00
2017-09-28T12:43:35.479Z,9.00
2017-09-28T12:46:02.944Z,10.40
2017-09-28T12:48:30.385Z,10.00
2017-09-28T12:50:57.845Z,10.23
2017-09-28T12:53:25.285Z,7.20
2017-09-28T12:55:52.740Z,10.93
2017-09-28T12:58:20.193Z,6.67
2017-09-28T13:00:47.655Z,6.63
2017-09-28T13:03:15.103Z,5.80
2017-09-28T13:05:42.564Z,6.00
2017-09-28T13:08:10.014Z,6.87
2017-09-28T13:10:37.474Z,8.07
2017-09-28T13:13:04.926Z,6.20
2017-09-28T13:15:32.378Z,5.20
2017-09-28T13:17:59.861Z,6.30
2017-09-28T13:20:27.282Z,6.97
2017-09-28T13:22:55.502Z,5.50
2017-09-28T13:25:22.951Z,6.20
2017-09-28T13:27:50.405Z,5.07
2017-09-28T13:30:17.850Z,6.83
2017-09-28T13:32:45.322Z,4.60
2017-09-28T13:35:12.769Z,10.37
2017-09-28T13:37:40.225Z,5.47
2017-09-28T13:40:07.681Z,4.93
2017-09-28T13:42:35.257Z,5.30
2017-09-28T13:45:02.706Z,4.33
2017-09-28T13:47:30.265Z,6.10
2017-09-28T13:49:57.714Z,7.53
2017-09-28T13:52:25.169Z,6.20
2017-09-28T13:54:52.651Z,5.63
2017-09-28T13:57:20.921Z,6.40
2017-09-28T13:59:48.381Z,5.10
2017-09-28T14:02:15.838Z,6.37
2017-09-28T14:04:44.072Z,10.07
2017-09-28T14:07:11.525Z,6.93
2017-09-28T14:09:38.987Z,6.80
2017-09-28T14:12:06.481Z,6.73
2017-09-28T14:14:33.933Z,8.53
2017-09-28T14:17:01.444Z,8.93
2017-09-28T14:19:28.950Z,8.03
2017-09-28T14:21:56.404Z,6.97
2017-09-28T14:24:24.647Z,5.60
2017-09-28T14:26:52.091Z,7.37
2017-09-28T14:29:19.552Z,8.27
2017-09-28T14:31:47.015Z,8.03
2017-09-28T14:34:14.505Z,6.80
2017-09-28T14:36:41.967Z,23.57
2017-09-28T14:39:10.186Z,6.67
2017-09-28T14:41:37.637Z,7.10
2017-09-28T14:44:05.862Z,7.57
2017-09-28T14:46:33.421Z,8.33
2017-09-28T14:49:00.876Z,6.37
2017-09-28T14:51:28.312Z,6.50
2017-09-28T14:53:55.793Z,6.63
2017-09-28T14:56:23.242Z,6.33
2017-09-28T14:58:50.813Z,5.67
2017-09-28T15:01:18.257Z,8.00
2017-09-28T15:03:45.713Z,6.67
2017-09-28T15:06:13.154Z,8.07
2017-09-28T15:08:40.634Z,6.43
2017-09-28T15:11:08.104Z,7.30
2017-09-28T15:13:36.313Z,8.10
2017-09-28T15:16:03.787Z,10.17
2017-09-28T15:18:31.234Z,8.50
2017-09-28T15:20:58.691Z,5.53
2017-09-28T15:23:26.146Z,9.03
2017-09-28T15:25:53.603Z,7.83
2017-09-28T15:28:21.094Z,9.97
2017-09-28T15:30:48.604Z,6.67
2017-09-28T15:33:16.828Z,6.73
2017-09-28T15:35:44.382Z,6.87
2017-09-28T15:38:11.830Z,7.27
2017-09-28T15:40:39.286Z,6.60
2017-09-28T15:43:06.729Z,6.20
2017-09-28T15:45:34.194Z,5.87
2017-09-28T15:48:01.640Z,6.63
2017-09-28T15:50:29.094Z,6.30
2017-09-28T15:52:56.538Z,6.90
2017-09-28T15:55:24.010Z,6.57
2017-09-28T15:57:51.566Z,5.20
2017-09-28T16:00:19.049Z,8.33
2017-09-28T16:02:46.613Z,6.70
2017-09-28T16:05:14.069Z,6.70
2017-09-28T16:07:41.634Z,5.90
2017-09-28T16:10:09.073Z,9.87
2017-09-28T16:12:36.637Z,5.63
2017-09-28T16:15:04.765Z,5.80
2017-09-28T16:17:32.983Z,6.73
2017-09-28T16:20:00.453Z,6.20
2017-09-28T16:22:29.617Z,6.83
2017-09-28T16:24:57.068Z,5.53
2017-09-28T16:27:24.526Z,5.27
2017-09-28T16:29:52.018Z,5.90
2017-09-28T16:32:19.473Z,5.57
2017-09-28T16:34:46.931Z,6.73
2017-09-28T16:37:14.389Z,9.50
2017-09-28T16:39:41.848Z,9.53
2017-09-28T16:42:09.324Z,10.37
2017-09-28T16:44:36.773Z,11.93
2017-09-28T16:47:07.357Z,9.93
2017-09-28T16:49:36.245Z,14.00
2017-09-28T16:52:05.427Z,20.57
2017-09-28T16:54:32.903Z,19.93
2017-09-28T16:57:02.402Z,17.67
2017-09-28T16:59:29.859Z,18.40
2017-09-28T17:01:57.318Z,9.90
2017-09-28T17:04:24.882Z,8.37
2017-09-28T17:06:52.329Z,8.73
2017-09-28T17:09:19.805Z,7.93
2017-09-28T17:11:47.304Z,8.30
2017-09-28T17:14:14.773Z,7.70
2017-09-28T17:16:43.033Z,8.30
2017-09-28T17:19:11.348Z,8.10
2017-09-28T17:21:38.801Z,11.63
2017-09-28T17:24:06.305Z,10.63
2017-09-28T17:26:33.787Z,6.60
2017-09-28T17:29:02.027Z,7.17
2017-09-28T17:31:29.513Z,9.03
2017-09-28T17:33:57.787Z,8.10
2017-09-28T17:36:25.284Z,7.43
2017-09-28T17:38:52.850Z,7.87
2017-09-28T17:41:20.380Z,6.07
2017-09-28T17:43:47.910Z,7.90
2017-09-28T17:46:15.511Z,8.20
2017-09-28T17:48:42.963Z,8.90
2017-09-28T17:51:10.422Z,9.20
2017-09-28T17:53:37.865Z,7.53
2017-09-28T17:56:05.330Z,11.63
2017-09-28T17:58:32.796Z,12.30
2017-09-28T18:01:00.291Z,12.23
2017-09-28T18:03:27.740Z,10.17
2017-09-28T18:05:55.202Z,10.83
2017-09-28T18:08:22.658Z,13.47
2017-09-28T18:10:50.222Z,15.47
2017-09-28T18:13:17.690Z,15.43
2017-09-28T18:15:45.154Z,12.23
2017-09-28T18:18:12.605Z,11.20
2017-09-28T18:20:40.070Z,10.87
2017-09-28T18:23:08.294Z,10.50
2017-09-28T18:25:35.766Z,16.10
2017-09-28T18:28:04.199Z,26.47
2017-09-28T18:30:32.425Z,9.90
2017-09-28T18:32:59.882Z,11.60
2017-09-28T18:35:27.341Z,19.33
2017-09-28T18:37:58.627Z,10.87
2017-09-28T18:40:26.845Z,10.27
2017-09-28T18:42:54.320Z,20.10
2017-09-28T18:45:21.779Z,13.60
2017-09-28T18:47:49.237Z,12.20
2017-09-28T18:50:16.703Z,12.83
2017-09-28T18:52:46.964Z,13.63
2017-09-28T18:55:14.588Z,15.33
2017-09-28T18:57:42.041Z,13.57
2017-09-28T19:00:15.890Z,10.03
2017-09-28T19:02:43.360Z,11.70
2017-09-28T19:05:10.816Z,12.53
2017-09-28T19:07:38.282Z,11.57
2017-09-28T19:10:05.770Z,11.70
2017-09-28T19:12:33.325Z,10.90
2017-09-28T19:15:00.795Z,10.07
2017-09-28T19:17:28.250Z,14.60
2017-09-28T19:19:55.710Z,15.53
2017-09-28T19:22:23.157Z,10.60
2017-09-28T19:24:50.702Z,10.93
2017-09-28T19:27:18.205Z,11.70
2017-09-28T19:29:46.421Z,12.50
2017-09-28T19:32:13.877Z,15.13
2017-09-28T19:34:41.346Z,13.20
2017-09-28T19:37:08.801Z,10.03
2017-09-28T19:39:36.270Z,11.23
2017-09-28T19:42:03.742Z,11.80
2017-09-28T19:44:31.198Z,15.20
2017-09-28T19:46:59.363Z,10.80
2017-09-28T19:49:26.831Z,12.63
2017-09-28T19:51:55.082Z,12.00
2017-09-28T19:54:22.555Z,14.80
2017-09-28T19:56:50.005Z,12.00
2017-09-28T19:59:17.471Z,13.47
2017-09-28T20:01:44.935Z,15.00
2017-09-28T20:04:12.397Z,15.50
2017-09-28T20:06:40.617Z,14.30
2017-09-28T20:09:09.876Z,15.57
2017-09-28T20:11:37.411Z,18.00
2017-09-28T20:14:04.858Z,16.33
2017-09-28T20:16:32.329Z,17.23
2017-09-28T20:18:59.786Z,15.07
2017-09-28T20:21:27.256Z,12.90
2017-09-28T20:23:55.497Z,17.00
2017-09-28T20:26:22.971Z,17.27
2017-09-28T20:28:50.432Z,11.97
2017-09-28T20:31:17.975Z,13.80
2017-09-28T20:33:45.438Z,11.47
2017-09-28T20:36:12.902Z,17.07
2017-09-28T20:38:40.358Z,13.73
2017-09-28T20:41:07.902Z,12.03
2017-09-28T20:43:35.365Z,13.57
2017-09-28T20:46:02.830Z,12.10
2017-09-28T20:48:30.290Z,11.70
2017-09-28T20:50:58.551Z,14.17
2017-09-28T20:53:26.102Z,18.47
2017-09-28T20:55:53.661Z,12.77
2017-09-28T20:58:21.121Z,13.83
2017-09-28T21:00:48.579Z,15.50
2017-09-28T21:03:17.543Z,13.10
2017-09-28T21:05:45.022Z,11.87
2017-09-28T21:08:13.981Z,13.20
2017-09-28T21:10:41.451Z,12.90
2017-09-28T21:13:08.925Z,13.40
2017-09-28T21:15:36.395Z,15.13
2017-09-28T21:18:03.860Z,14.47
2017-09-28T21:20:31.316Z,15.97
2017-09-28T21:22:58.782Z,15.40
2017-09-28T21:25:27.005Z,14.23
2017-09-28T21:27:54.470Z,14.33
2017-09-28T21:30:21.932Z,15.47
2017-09-28T21:32:49.390Z,13.87
2017-09-28T21:35:16.850Z,17.33
2017-09-28T21:37:44.317Z,16.47
2017-09-28T21:40:11.766Z,24.87
2017-09-28T21:42:39.233Z,16.50
2017-09-28T21:45:07.741Z,15.10
2017-09-28T21:47:35.952Z,25.50
2017-09-28T21:50:03.421Z,14.33
2017-09-28T21:52:30.896Z,16.87
2017-09-28T21:54:58.445Z,15.70
2017-09-28T21:57:26.011Z,20.00
2017-09-28T22:02:39.145Z,15.50
2017-09-28T22:05:06.603Z,15.77
2017-09-28T22:07:34.175Z,15.67
2017-09-28T22:10:01.634Z,14.80
2017-09-28T22:12:29.084Z,18.33
2017-09-28T22:14:56.556Z,15.00
2017-09-28T22:17:24.010Z,16.60
2017-09-28T22:19:51.481Z,13.30
2017-09-28T22:22:19.698Z,18.60
2017-09-28T22:24:47.190Z,16.77
2017-09-28T22:27:14.639Z,17.63
2017-09-28T22:29:42.106Z,19.23
2017-09-28T22:32:09.657Z,17.37
2017-09-28T22:34:37.128Z,14.37
2017-09-28T22:37:04.579Z,16.17
2017-09-28T22:39:32.061Z,14.37
2017-09-28T22:42:00.324Z,15.63
2017-09-28T22:44:27.754Z,16.57
2017-09-28T22:46:55.229Z,14.93
2017-09-28T22:49:22.769Z,17.17
2017-09-28T22:51:50.242Z,13.50
2017-09-28T22:54:17.694Z,18.47
2017-09-28T22:56:45.257Z,19.03
2017-09-28T22:59:12.801Z,13.70
2017-09-28T23:01:40.270Z,16.30
2017-09-28T23:04:07.739Z,18.43
2017-09-28T23:06:35.609Z,14.07
2017-09-28T23:09:03.825Z,13.87
2017-09-28T23:11:31.309Z,14.90
2017-09-28T23:13:58.769Z,14.50
2017-09-28T23:16:26.244Z,14.90
2017-09-28T23:18:53.700Z,15.33
2017-09-28T23:21:21.177Z,22.97
2017-09-28T23:23:49.406Z,20.13
2017-09-28T23:26:19.033Z,16.27
2017-09-28T23:28:46.582Z,17.23
2017-09-28T23:31:14.033Z,19.87
2017-09-28T23:33:41.506Z,13.93
2017-09-28T23:36:08.970Z,14.70
2017-09-28T23:38:36.506Z,15.43
2017-09-28T23:41:03.965Z,15.23
2017-09-28T23:43:33.369Z,15.17
2017-09-28T23:46:00.825Z,16.93
2017-09-28T23:48:28.285Z,23.63
2017-09-28T23:50:55.842Z,17.13
2017-09-28T23:53:23.313Z,17.70
2017-09-28T23:55:50.778Z,19.03
2017-09-28T23:58:18.246Z,15.77
